createdAt,value
2023-04-09T00:00:12.487Z,78.50
2023-04-09T00:01:44.125Z,78.50
2023-04-09T00:03:16.029Z,78.50
2023-04-09T00:04:47.766Z,78.50
2023-04-09T00:06:19.450Z,78.40
2023-04-09T00:07:51.094Z,78.50
2023-04-09T00:09:22.802Z,78.50
2023-04-09T00:10:55.416Z,78.50
2023-04-09T00:12:27.101Z,78.50
2023-04-09T00:13:59.056Z,78.40
2023-04-09T00:15:31.947Z,78.50
2023-04-09T00:17:03.766Z,78.50
2023-04-09T00:18:35.560Z,78.50
2023-04-09T00:20:07.901Z,78.40
2023-04-09T00:21:39.601Z,78.40
2023-04-09T00:23:12.890Z,78.40
2023-04-09T00:24:44.747Z,78.50
2023-04-09T00:26:16.440Z,78.40
2023-04-09T00:27:48.154Z,78.40
2023-04-09T00:29:20.172Z,78.40
2023-04-09T00:30:52.000Z,78.50
2023-04-09T00:32:23.798Z,78.40
2023-04-09T00:33:56.012Z,78.40
2023-04-09T00:35:27.723Z,78.40
2023-04-09T00:36:59.943Z,78.30
2023-04-09T00:38:32.250Z,78.30
2023-04-09T00:40:04.767Z,78.40
2023-04-09T00:41:36.475Z,78.30
2023-04-09T00:43:08.286Z,78.40
2023-04-09T00:44:39.946Z,78.30
2023-04-09T00:46:11.806Z,78.30
2023-04-09T00:47:45.901Z,78.30
2023-04-09T00:49:17.831Z,78.30
2023-04-09T00:50:49.707Z,78.40
2023-04-09T00:52:21.710Z,78.30
2023-04-09T00:53:54.269Z,78.30
2023-04-09T00:55:26.660Z,78.30
2023-04-09T00:56:59.497Z,78.30
2023-04-09T00:58:31.280Z,78.40
2023-04-09T01:00:04.415Z,78.40
2023-04-09T01:01:36.253Z,78.50
2023-04-09T01:03:08.329Z,78.40
2023-04-09T01:04:42.792Z,78.40
2023-04-09T01:06:33.809Z,78.30
2023-04-09T01:08:11.585Z,78.40
2023-04-09T01:09:51.921Z,78.30
2023-04-09T01:11:35.791Z,78.40
2023-04-09T01:13:30.682Z,78.40
2023-04-09T01:15:08.598Z,78.30
2023-04-09T01:16:45.015Z,78.40
2023-04-09T01:18:40.007Z,78.40
2023-04-09T01:20:28.974Z,78.30
2023-04-09T01:22:01.838Z,78.40
2023-04-09T01:23:42.694Z,78.30
2023-04-09T01:25:39.062Z,78.30
2023-04-09T01:27:11.601Z,78.40
2023-04-09T01:28:57.285Z,78.30
2023-04-09T01:30:30.323Z,78.20
2023-04-09T01:32:05.122Z,78.20
2023-04-09T01:33:37.948Z,78.20
2023-04-09T01:35:10.469Z,78.40
2023-04-09T01:36:45.415Z,78.20
2023-04-09T01:38:19.722Z,78.30
2023-04-09T01:39:51.641Z,78.30
2023-04-09T01:41:24.217Z,78.20
2023-04-09T01:42:58.151Z,78.20
2023-04-09T01:44:30.254Z,78.20
2023-04-09T01:46:03.477Z,78.20
2023-04-09T01:47:35.554Z,78.10
2023-04-09T01:49:09.242Z,78.20
2023-04-09T01:50:41.012Z,78.20
2023-04-09T01:52:13.272Z,78.10
2023-04-09T01:53:44.964Z,78.10
2023-04-09T01:55:16.812Z,78.10
2023-04-09T01:56:49.016Z,78.10
2023-04-09T01:58:20.833Z,78.10
2023-04-09T01:59:52.629Z,78.10
2023-04-09T02:01:36.601Z,78.10
2023-04-09T02:03:21.556Z,78.00
2023-04-09T02:04:55.555Z,77.90
2023-04-09T02:06:38.541Z,77.80
2023-04-09T02:08:13.026Z,77.90
2023-04-09T02:09:47.724Z,77.80
2023-04-09T02:11:23.463Z,77.70
2023-04-09T02:12:56.353Z,78.00
2023-04-09T02:14:30.276Z,77.90
2023-04-09T02:16:03.408Z,77.90
2023-04-09T02:17:35.467Z,77.90
2023-04-09T02:19:07.193Z,77.90
2023-04-09T02:20:38.873Z,77.90
2023-04-09T02:22:11.427Z,78.00
2023-04-09T02:23:43.326Z,77.90
2023-04-09T02:25:15.577Z,77.90
2023-04-09T02:26:47.330Z,77.90
2023-04-09T02:28:19.375Z,77.80
2023-04-09T02:29:51.065Z,77.90
2023-04-09T02:31:22.921Z,77.80
2023-04-09T02:32:54.731Z,77.90
2023-04-09T02:34:26.492Z,77.90
2023-04-09T02:35:58.206Z,77.80
2023-04-09T02:37:29.919Z,77.80
2023-04-09T02:39:01.865Z,77.70
2023-04-09T02:40:33.794Z,77.70
2023-04-09T02:42:07.749Z,77.50
2023-04-09T02:43:39.457Z,77.50
2023-04-09T02:45:11.750Z,77.60
2023-04-09T02:46:49.329Z,77.60
2023-04-09T02:48:21.187Z,77.60
2023-04-09T02:49:52.997Z,77.70
2023-04-09T02:51:24.727Z,77.70
2023-04-09T02:52:56.562Z,77.60
2023-04-09T02:54:28.279Z,77.60
2023-04-09T02:56:00.132Z,77.60
2023-04-09T02:57:33.714Z,77.60
2023-04-09T02:59:05.591Z,77.60
2023-04-09T03:00:37.412Z,77.60
2023-04-09T03:02:09.426Z,77.60
2023-04-09T03:03:42.842Z,77.50
2023-04-09T03:05:14.707Z,77.50
2023-04-09T03:06:46.367Z,77.50
2023-04-09T03:08:18.194Z,77.50
2023-04-09T03:09:49.852Z,77.40
2023-04-09T03:11:21.701Z,77.40
2023-04-09T03:12:53.403Z,77.30
2023-04-09T03:14:25.082Z,77.30
2023-04-09T03:15:56.838Z,77.20
2023-04-09T03:17:31.711Z,77.10
2023-04-09T03:19:03.385Z,77.10
2023-04-09T03:20:38.996Z,77.00
2023-04-09T03:22:12.540Z,76.90
2023-04-09T03:23:44.447Z,76.80
2023-04-09T03:25:16.468Z,76.90
2023-04-09T03:26:48.213Z,76.90
2023-04-09T03:28:20.610Z,76.90
2023-04-09T03:29:56.651Z,76.80
2023-04-09T03:31:34.119Z,76.70
2023-04-09T03:33:06.024Z,76.70
2023-04-09T03:34:42.613Z,76.60
2023-04-09T03:36:14.404Z,76.30
2023-04-09T03:38:04.951Z,76.20
2023-04-09T03:39:37.162Z,76.20
2023-04-09T03:41:08.996Z,76.10
2023-04-09T03:42:42.889Z,76.10
2023-04-09T03:44:15.639Z,76.00
2023-04-09T03:46:17.074Z,75.90
2023-04-09T03:47:51.236Z,75.90
2023-04-09T03:49:27.357Z,75.90
2023-04-09T03:51:02.737Z,75.90
2023-04-09T03:52:41.960Z,76.00
2023-04-09T03:54:14.584Z,75.90
2023-04-09T03:55:46.772Z,76.00
2023-04-09T03:57:25.568Z,76.10
2023-04-09T03:58:58.914Z,76.00
2023-04-09T04:00:39.496Z,75.90
2023-04-09T04:02:34.927Z,75.90
2023-04-09T04:04:09.928Z,75.70
2023-04-09T04:06:02.188Z,75.70
2023-04-09T04:07:38.843Z,75.60
2023-04-09T04:09:15.301Z,75.60
2023-04-09T04:11:16.425Z,75.40
2023-04-09T04:12:48.496Z,75.40
2023-04-09T04:14:40.642Z,75.40
2023-04-09T04:16:23.140Z,75.40
2023-04-09T04:17:59.373Z,75.50
2023-04-09T04:21:51.794Z,75.60
2023-04-09T04:23:38.507Z,75.80
2023-04-09T04:25:23.306Z,75.70
2023-04-09T04:28:57.011Z,75.60
2023-04-09T04:31:04.419Z,75.50
2023-04-09T04:32:47.505Z,75.40
2023-04-09T04:34:30.636Z,75.40
2023-04-09T04:36:13.378Z,75.50
2023-04-09T04:37:51.195Z,75.40
2023-04-09T04:39:23.482Z,75.30
2023-04-09T04:41:00.929Z,75.30
2023-04-09T04:42:33.415Z,75.20
2023-04-09T04:44:07.235Z,75.20
2023-04-09T04:45:39.338Z,75.30
2023-04-09T04:47:15.779Z,75.10
2023-04-09T04:48:47.476Z,75.10
2023-04-09T04:50:19.391Z,74.90
2023-04-09T04:52:02.343Z,75.00
2023-04-09T04:53:35.255Z,75.00
2023-04-09T04:55:13.901Z,74.90
2023-04-09T04:56:45.745Z,74.90
2023-04-09T04:58:35.084Z,74.90
2023-04-09T05:00:08.474Z,74.80
2023-04-09T05:01:41.147Z,74.90
2023-04-09T05:03:16.285Z,74.80
2023-04-09T05:05:11.295Z,74.80
2023-04-09T05:06:49.161Z,74.70
2023-04-09T05:08:24.896Z,74.70
2023-04-09T05:09:58.484Z,74.70
2023-04-09T05:11:30.599Z,74.70
2023-04-09T05:13:02.463Z,74.70
2023-04-09T05:14:39.317Z,74.70
2023-04-09T05:16:17.807Z,74.80
2023-04-09T05:17:53.395Z,74.70
2023-04-09T05:19:25.305Z,74.80
2023-04-09T05:21:02.938Z,74.80
2023-04-09T05:22:36.626Z,74.80
2023-04-09T05:24:09.210Z,74.70
2023-04-09T05:25:41.078Z,74.80
2023-04-09T05:27:19.439Z,74.90
2023-04-09T05:28:54.333Z,74.80
2023-04-09T05:30:27.824Z,75.00
2023-04-09T05:32:02.082Z,75.00
2023-04-09T05:33:40.874Z,75.10
2023-04-09T05:35:19.534Z,75.20
2023-04-09T05:36:51.287Z,75.30
2023-04-09T05:38:25.758Z,75.40
2023-04-09T05:40:01.764Z,75.50
2023-04-09T05:41:33.966Z,75.50
2023-04-09T05:43:22.154Z,75.50
2023-04-09T05:44:53.851Z,75.50
2023-04-09T05:46:27.255Z,75.50
2023-04-09T05:47:59.690Z,75.50
2023-04-09T05:49:32.102Z,75.50
2023-04-09T05:51:04.434Z,75.70
2023-04-09T05:52:36.145Z,75.90
2023-04-09T05:54:08.616Z,76.00
2023-04-09T05:55:42.464Z,76.10
2023-04-09T05:57:15.293Z,76.10
2023-04-09T05:58:51.534Z,76.30
2023-04-09T06:00:23.241Z,76.30
2023-04-09T06:01:55.413Z,76.40
2023-04-09T06:03:29.021Z,76.40
2023-04-09T06:05:00.941Z,76.50
2023-04-09T06:06:32.884Z,76.50
2023-04-09T06:08:05.332Z,76.60
2023-04-09T06:09:37.921Z,76.60
2023-04-09T06:11:10.461Z,76.70
2023-04-09T06:12:42.535Z,76.80
2023-04-09T06:14:17.893Z,76.90
2023-04-09T06:15:49.629Z,77.00
2023-04-09T06:17:21.362Z,77.10
2023-04-09T06:18:54.469Z,77.10
2023-04-09T06:20:26.142Z,77.10
2023-04-09T06:21:57.788Z,77.20
2023-04-09T06:23:29.575Z,77.20
2023-04-09T06:25:01.390Z,77.30
2023-04-09T06:26:33.032Z,77.40
2023-04-09T06:28:04.918Z,77.40
2023-04-09T06:29:36.598Z,77.50
2023-04-09T06:31:08.310Z,77.50
2023-04-09T06:32:51.031Z,77.50
2023-04-09T06:34:25.756Z,77.60
2023-04-09T06:35:57.490Z,77.60
2023-04-09T06:37:29.175Z,77.60
2023-04-09T06:39:00.827Z,77.70
2023-04-09T06:40:32.649Z,77.60
2023-04-09T06:42:04.346Z,77.50
2023-04-09T06:43:45.166Z,77.60
2023-04-09T06:45:20.963Z,77.60
2023-04-09T06:46:56.262Z,77.60
2023-04-09T06:48:28.057Z,77.60
2023-04-09T06:49:59.701Z,77.50
2023-04-09T06:51:39.268Z,77.60
2023-04-09T06:53:11.301Z,77.60
2023-04-09T06:54:43.734Z,77.70
2023-04-09T06:56:15.623Z,77.70
2023-04-09T06:57:47.682Z,77.60
2023-04-09T06:59:19.389Z,77.60
2023-04-09T07:00:51.069Z,77.40
2023-04-09T07:02:22.954Z,77.50
2023-04-09T07:03:55.171Z,77.40
2023-04-09T07:05:27.031Z,77.50
2023-04-09T07:06:59.980Z,77.50
2023-04-09T07:08:31.775Z,77.30
2023-04-09T07:10:03.634Z,77.20
2023-04-09T07:11:35.290Z,77.20
2023-04-09T07:13:07.349Z,77.10
2023-04-09T07:14:39.068Z,77.00
2023-04-09T07:16:13.003Z,77.00
2023-04-09T07:17:44.808Z,76.90
2023-04-09T07:19:16.549Z,76.80
2023-04-09T07:20:52.108Z,76.90
2023-04-09T07:22:25.552Z,76.80
2023-04-09T07:24:03.274Z,76.70
2023-04-09T07:25:44.126Z,76.80
2023-04-09T07:27:16.587Z,76.70
2023-04-09T07:28:52.169Z,76.60
2023-04-09T07:30:27.515Z,76.70
2023-04-09T07:32:04.250Z,76.60
2023-04-09T07:33:36.484Z,76.70
2023-04-09T07:35:12.141Z,76.50
2023-04-09T07:36:49.437Z,76.40
2023-04-09T07:38:24.779Z,76.30
2023-04-09T07:39:57.930Z,76.50
2023-04-09T07:41:32.620Z,76.50
2023-04-09T07:43:07.852Z,76.30
2023-04-09T07:44:43.671Z,76.30
2023-04-09T07:46:22.999Z,76.40
2023-04-09T07:47:56.703Z,76.20
2023-04-09T07:49:31.264Z,76.10
2023-04-09T07:51:25.710Z,76.00
2023-04-09T07:52:57.462Z,75.90
2023-04-09T07:54:30.280Z,75.90
2023-04-09T07:56:06.123Z,75.90
2023-04-09T07:57:37.881Z,75.90
2023-04-09T07:59:10.839Z,75.80
2023-04-09T08:00:42.570Z,75.80
2023-04-09T08:02:15.425Z,75.80
2023-04-09T08:03:47.325Z,75.70
2023-04-09T08:05:21.383Z,75.50
2023-04-09T08:06:53.618Z,75.70
2023-04-09T08:08:25.378Z,75.80
2023-04-09T08:09:59.843Z,75.80
2023-04-09T08:11:31.511Z,76.00
2023-04-09T08:13:03.214Z,75.90
2023-04-09T08:14:34.983Z,75.90
2023-04-09T08:16:06.709Z,75.80
2023-04-09T08:17:38.374Z,75.90
2023-04-09T08:19:11.172Z,75.70
2023-04-09T08:20:45.328Z,75.70
2023-04-09T08:22:23.247Z,75.60
2023-04-09T08:23:59.412Z,75.60
2023-04-09T08:25:37.696Z,75.50
2023-04-09T08:27:12.577Z,75.40
2023-04-09T08:28:44.310Z,75.30
2023-04-09T08:30:18.272Z,75.20
2023-04-09T08:31:50.562Z,75.10
2023-04-09T08:33:22.652Z,75.10
2023-04-09T08:34:54.433Z,75.00
2023-04-09T08:36:29.109Z,74.90
2023-04-09T08:38:03.308Z,74.90
2023-04-09T08:39:36.187Z,74.90
2023-04-09T08:41:07.861Z,74.80
2023-04-09T08:42:45.233Z,74.90
2023-04-09T08:44:17.556Z,74.90
2023-04-09T08:45:49.332Z,74.80
2023-04-09T08:47:21.504Z,74.80
2023-04-09T08:48:53.970Z,74.90
2023-04-09T08:50:34.286Z,74.70
2023-04-09T08:52:06.773Z,74.80
2023-04-09T08:53:38.988Z,74.60
2023-04-09T08:55:12.124Z,74.60
2023-04-09T08:56:43.889Z,74.50
2023-04-09T08:58:17.981Z,74.30
2023-04-09T08:59:49.699Z,74.30
2023-04-09T09:01:22.244Z,74.50
2023-04-09T09:03:25.032Z,74.50
2023-04-09T09:05:00.715Z,74.50
2023-04-09T09:06:37.093Z,74.30
2023-04-09T09:08:10.585Z,73.60
2023-04-09T09:09:59.873Z,73.50
2023-04-09T09:11:31.835Z,73.30
2023-04-09T09:13:22.420Z,73.10
2023-04-09T09:14:54.196Z,72.90
2023-04-09T09:16:26.160Z,72.80
2023-04-09T09:18:00.607Z,72.80
2023-04-09T09:19:33.920Z,72.70
2023-04-09T09:21:13.268Z,72.70
2023-04-09T09:23:13.677Z,72.60
2023-04-09T09:24:52.836Z,72.70
2023-04-09T09:26:29.904Z,72.90
2023-04-09T09:28:10.157Z,73.00
2023-04-09T09:29:44.735Z,72.90
2023-04-09T09:31:21.007Z,72.70
2023-04-09T09:32:54.662Z,72.40
2023-04-09T09:34:26.493Z,72.30
2023-04-09T09:35:58.178Z,72.10
2023-04-09T09:37:30.953Z,71.90
2023-04-09T09:39:10.187Z,72.00
2023-04-09T09:40:42.176Z,72.10
2023-04-09T09:42:13.789Z,72.00
2023-04-09T09:43:45.759Z,72.00
2023-04-09T09:45:20.821Z,72.00
2023-04-09T09:46:53.001Z,72.10
2023-04-09T09:48:27.047Z,71.80
2023-04-09T09:50:00.838Z,71.70
2023-04-09T09:51:37.101Z,71.70
2023-04-09T09:53:11.089Z,71.50
2023-04-09T09:54:48.199Z,71.70
2023-04-09T09:56:35.559Z,71.60
2023-04-09T09:58:28.735Z,71.40
2023-04-09T10:00:04.771Z,71.50
2023-04-09T10:01:45.762Z,71.50
2023-04-09T10:03:24.798Z,71.10
2023-04-09T10:05:01.123Z,70.90
2023-04-09T10:06:37.222Z,70.70
2023-04-09T10:08:19.547Z,71.00
2023-04-09T10:09:53.032Z,71.00
2023-04-09T10:11:25.510Z,71.20
2023-04-09T10:12:57.885Z,70.90
2023-04-09T10:14:30.351Z,70.60
2023-04-09T10:16:02.664Z,70.40
2023-04-09T10:17:34.755Z,70.50
2023-04-09T10:19:10.004Z,70.30
2023-04-09T10:20:58.149Z,70.50
2023-04-09T10:22:33.486Z,70.60
2023-04-09T10:24:11.708Z,70.60
2023-04-09T10:25:43.923Z,70.50
2023-04-09T10:27:17.353Z,70.40
2023-04-09T10:29:06.922Z,70.40
2023-04-09T10:30:38.707Z,70.30
2023-04-09T10:32:11.527Z,70.00
2023-04-09T10:33:45.950Z,69.80
2023-04-09T10:35:26.565Z,69.50
2023-04-09T10:36:59.720Z,69.60
2023-04-09T10:38:45.197Z,69.70
2023-04-09T10:40:21.573Z,69.80
2023-04-09T10:41:54.861Z,69.30
2023-04-09T10:43:30.541Z,69.10
2023-04-09T10:45:14.074Z,68.90
2023-04-09T10:46:46.168Z,68.90
2023-04-09T10:48:19.644Z,69.00
2023-04-09T10:49:53.658Z,68.90
2023-04-09T10:51:26.185Z,68.80
2023-04-09T10:53:00.272Z,68.80
2023-04-09T10:54:35.133Z,68.90
2023-04-09T10:56:15.421Z,68.80
2023-04-09T10:57:47.154Z,68.40
2023-04-09T10:59:20.414Z,68.30
2023-04-09T11:00:54.229Z,68.00
2023-04-09T11:02:43.329Z,68.00
2023-04-09T11:04:28.785Z,68.20
2023-04-09T11:06:08.913Z,68.20
2023-04-09T11:07:45.361Z,68.20
2023-04-09T11:09:17.153Z,68.10
2023-04-09T11:10:51.725Z,68.20
2023-04-09T11:12:26.861Z,68.20
2023-04-09T11:14:03.832Z,68.00
2023-04-09T11:15:39.202Z,67.80
2023-04-09T11:17:11.146Z,67.70
2023-04-09T11:18:42.909Z,67.40
2023-04-09T11:20:23.376Z,66.60
2023-04-09T11:21:55.806Z,66.80
2023-04-09T11:23:28.083Z,66.60
2023-04-09T11:24:59.785Z,66.40
2023-04-09T11:26:37.379Z,66.00
2023-04-09T11:28:09.456Z,66.20
2023-04-09T11:29:42.368Z,66.30
2023-04-09T11:31:14.102Z,66.50
2023-04-09T11:32:46.487Z,66.40
2023-04-09T11:34:18.160Z,66.30
2023-04-09T11:35:53.588Z,66.10
2023-04-09T11:37:25.662Z,65.50
2023-04-09T11:38:57.464Z,65.60
2023-04-09T11:40:35.356Z,65.70
2023-04-09T11:42:07.528Z,65.60
2023-04-09T11:43:39.619Z,65.10
2023-04-09T11:45:12.770Z,65.20
2023-04-09T11:46:50.488Z,65.00
2023-04-09T11:48:24.666Z,65.10
2023-04-09T11:49:56.641Z,65.10
2023-04-09T11:51:33.607Z,65.20
2023-04-09T11:53:21.874Z,65.30
2023-04-09T11:54:53.731Z,65.10
2023-04-09T11:56:25.641Z,64.80
2023-04-09T11:58:00.970Z,65.00
2023-04-09T11:59:33.163Z,64.40
2023-04-09T12:01:04.949Z,64.30
2023-04-09T12:02:47.841Z,64.40
2023-04-09T12:04:21.615Z,64.30
2023-04-09T12:05:53.377Z,64.80
2023-04-09T12:07:32.611Z,64.70
2023-04-09T12:09:06.264Z,64.40
2023-04-09T12:10:39.987Z,64.50
2023-04-09T12:12:11.774Z,64.40
2023-04-09T12:13:48.566Z,64.30
2023-04-09T12:15:25.284Z,64.40
2023-04-09T12:16:57.082Z,64.20
2023-04-09T12:18:28.910Z,64.00
2023-04-09T12:20:00.672Z,64.00
2023-04-09T12:21:55.964Z,64.10
2023-04-09T12:23:27.679Z,64.00
2023-04-09T12:24:59.403Z,63.80
2023-04-09T12:26:31.087Z,63.70
2023-04-09T12:28:04.042Z,63.90
2023-04-09T12:29:36.059Z,63.80
2023-04-09T12:31:10.729Z,63.90
2023-04-09T12:32:44.634Z,63.70
2023-04-09T12:34:16.313Z,63.60
2023-04-09T12:35:48.109Z,63.60
2023-04-09T12:37:19.758Z,63.60
2023-04-09T12:38:51.602Z,63.10
2023-04-09T12:40:23.576Z,63.20
2023-04-09T12:41:55.720Z,63.00
2023-04-09T12:43:27.790Z,63.00
2023-04-09T12:44:59.459Z,63.10
2023-04-09T12:46:32.383Z,62.50
2023-04-09T12:48:04.522Z,62.60
2023-04-09T12:49:36.349Z,62.60
2023-04-09T12:51:08.838Z,62.30
2023-04-09T12:52:40.642Z,62.60
2023-04-09T12:54:14.986Z,62.50
2023-04-09T12:55:46.810Z,62.50
2023-04-09T12:57:20.543Z,61.90
2023-04-09T12:58:52.490Z,62.10
2023-04-09T13:00:24.551Z,62.30
2023-04-09T13:01:56.563Z,61.90
2023-04-09T13:03:28.991Z,62.30
2023-04-09T13:05:00.883Z,62.40
2023-04-09T13:06:38.325Z,62.40
2023-04-09T13:08:10.640Z,62.50
2023-04-09T13:09:45.217Z,62.30
2023-04-09T13:11:30.536Z,62.20
2023-04-09T13:13:03.068Z,62.30
2023-04-09T13:14:36.685Z,62.00
2023-04-09T13:16:12.449Z,62.00
2023-04-09T13:17:44.560Z,61.90
2023-04-09T13:19:19.189Z,62.00
2023-04-09T13:21:05.047Z,62.00
2023-04-09T13:22:37.362Z,61.80
2023-04-09T13:24:09.255Z,61.90
2023-04-09T13:25:43.379Z,62.00
2023-04-09T13:27:24.505Z,61.80
2023-04-09T13:28:56.840Z,61.70
2023-04-09T13:30:34.731Z,61.30
2023-04-09T13:32:11.312Z,61.60
2023-04-09T13:33:49.244Z,61.50
2023-04-09T13:35:23.580Z,61.20
2023-04-09T13:36:55.716Z,61.10
2023-04-09T13:38:33.742Z,61.30
2023-04-09T13:40:15.508Z,61.20
2023-04-09T13:41:47.591Z,60.90
2023-04-09T13:43:19.737Z,60.80
2023-04-09T13:44:55.173Z,60.90
2023-04-09T13:46:36.869Z,60.80
2023-04-09T13:48:13.438Z,60.60
2023-04-09T13:49:51.619Z,60.70
2023-04-09T13:51:31.595Z,60.70
2023-04-09T13:53:05.324Z,60.50
2023-04-09T13:54:43.406Z,60.50
2023-04-09T13:56:16.281Z,60.50
2023-04-09T13:57:48.498Z,60.60
2023-04-09T13:59:22.027Z,60.30
2023-04-09T14:01:00.629Z,59.90
2023-04-09T14:02:34.091Z,60.10
2023-04-09T14:04:06.723Z,60.00
2023-04-09T14:05:42.369Z,60.10
2023-04-09T14:07:15.018Z,60.10
2023-04-09T14:08:48.904Z,59.90
2023-04-09T14:10:24.311Z,59.80
2023-04-09T14:11:56.675Z,60.30
2023-04-09T14:13:32.004Z,60.10
2023-04-09T14:15:06.947Z,60.30
2023-04-09T14:16:42.597Z,60.10
2023-04-09T14:18:15.074Z,59.90
2023-04-09T14:19:47.528Z,60.00
2023-04-09T14:21:31.544Z,60.20
2023-04-09T14:23:08.742Z,60.20
2023-04-09T14:24:41.360Z,59.90
2023-04-09T14:26:13.788Z,60.10
2023-04-09T14:27:48.868Z,60.30
2023-04-09T14:29:28.082Z,60.30
2023-04-09T14:31:00.831Z,60.10
2023-04-09T14:32:39.098Z,60.00
2023-04-09T14:34:11.680Z,59.90
2023-04-09T14:35:44.574Z,59.80
2023-04-09T14:37:17.292Z,59.90
2023-04-09T14:38:49.506Z,59.90
2023-04-09T14:40:21.727Z,59.70
2023-04-09T14:41:57.883Z,60.10
2023-04-09T14:43:35.452Z,60.00
2023-04-09T14:45:08.374Z,59.60
2023-04-09T14:46:40.656Z,59.90
2023-04-09T14:48:16.151Z,59.60
2023-04-09T14:49:48.144Z,59.60
2023-04-09T14:51:20.677Z,59.60
2023-04-09T14:52:53.190Z,59.80
2023-04-09T14:54:46.408Z,59.60
2023-04-09T14:56:18.111Z,59.50
2023-04-09T14:57:55.306Z,59.00
2023-04-09T14:59:27.447Z,59.20
2023-04-09T15:00:59.335Z,59.10
2023-04-09T15:02:31.515Z,59.20
2023-04-09T15:04:03.613Z,59.30
2023-04-09T15:05:35.578Z,59.40
2023-04-09T15:07:07.256Z,59.30
2023-04-09T15:08:39.037Z,59.30
2023-04-09T15:10:11.387Z,59.30
2023-04-09T15:11:43.442Z,59.40
2023-04-09T15:13:15.313Z,59.40
2023-04-09T15:14:46.966Z,59.20
2023-04-09T15:16:27.843Z,58.90
2023-04-09T15:18:05.462Z,58.60
2023-04-09T15:19:37.588Z,59.10
2023-04-09T15:21:12.271Z,58.80
2023-04-09T15:22:44.171Z,58.90
2023-04-09T15:24:15.973Z,59.00
2023-04-09T15:25:47.684Z,59.10
2023-04-09T15:27:19.403Z,59.00
2023-04-09T15:28:53.556Z,59.20
2023-04-09T15:30:26.447Z,59.00
2023-04-09T15:32:05.910Z,59.10
2023-04-09T15:33:38.165Z,59.10
2023-04-09T15:35:10.615Z,59.30
2023-04-09T15:36:42.313Z,59.00
2023-04-09T15:38:14.058Z,59.00
2023-04-09T15:39:45.840Z,59.40
2023-04-09T15:41:17.924Z,59.20
2023-04-09T15:42:49.659Z,59.20
2023-04-09T15:44:21.372Z,59.40
2023-04-09T15:45:53.236Z,59.30
2023-04-09T15:47:25.018Z,59.00
2023-04-09T15:48:56.745Z,59.00
2023-04-09T15:50:28.451Z,59.10
2023-04-09T15:52:01.094Z,59.00
2023-04-09T15:53:33.272Z,59.20
2023-04-09T15:55:08.968Z,59.00
2023-04-09T15:56:40.913Z,58.80
2023-04-09T15:58:12.564Z,58.60
2023-04-09T15:59:44.265Z,58.50
2023-04-09T16:01:16.156Z,58.60
2023-04-09T16:02:48.016Z,59.00
2023-04-09T16:04:19.801Z,59.00
2023-04-09T16:05:51.489Z,59.00
2023-04-09T16:07:23.119Z,58.80
2023-04-09T16:08:57.376Z,58.80
2023-04-09T16:10:30.805Z,58.70
2023-04-09T16:12:03.117Z,58.60
2023-04-09T16:13:37.912Z,58.70
2023-04-09T16:15:12.834Z,58.70
2023-04-09T16:16:49.370Z,58.80
2023-04-09T16:18:21.144Z,58.70
2023-04-09T16:19:53.093Z,58.70
2023-04-09T16:21:24.763Z,58.80
2023-04-09T16:22:56.517Z,58.50
2023-04-09T16:24:28.450Z,58.60
2023-04-09T16:26:00.180Z,58.60
2023-04-09T16:27:33.436Z,58.80
2023-04-09T16:29:05.230Z,58.70
2023-04-09T16:30:37.542Z,58.70
2023-04-09T16:32:10.011Z,58.80
2023-04-09T16:33:41.788Z,58.50
2023-04-09T16:35:13.491Z,58.60
2023-04-09T16:36:45.427Z,58.50
2023-04-09T16:38:17.587Z,58.50
2023-04-09T16:39:49.735Z,58.70
2023-04-09T16:41:21.479Z,58.80
2023-04-09T16:42:53.679Z,58.40
2023-04-09T16:44:25.816Z,58.40
2023-04-09T16:45:57.581Z,58.60
2023-04-09T16:47:29.256Z,58.60
2023-04-09T16:49:00.966Z,58.70
2023-04-09T16:50:32.883Z,58.50
2023-04-09T16:52:04.574Z,58.40
2023-04-09T16:53:38.735Z,58.90
2023-04-09T16:55:11.071Z,58.60
2023-04-09T16:56:42.792Z,58.30
2023-04-09T16:58:14.661Z,58.50
2023-04-09T16:59:47.253Z,58.60
2023-04-09T17:01:19.007Z,58.50
2023-04-09T17:02:51.208Z,58.80
2023-04-09T17:04:23.104Z,58.80
2023-04-09T17:05:57.921Z,58.70
2023-04-09T17:07:30.580Z,58.60
2023-04-09T17:09:05.805Z,58.50
2023-04-09T17:10:38.686Z,58.50
2023-04-09T17:12:12.778Z,58.00
2023-04-09T17:13:44.477Z,58.50
2023-04-09T17:15:16.733Z,58.50
2023-04-09T17:16:48.678Z,58.80
2023-04-09T17:18:20.610Z,58.80
2023-04-09T17:19:53.250Z,58.70
2023-04-09T17:21:26.292Z,59.00
2023-04-09T17:22:57.950Z,58.70
2023-04-09T17:24:29.860Z,58.60
2023-04-09T17:26:02.217Z,58.90
2023-04-09T17:27:36.778Z,58.80
2023-04-09T17:29:11.548Z,58.80
2023-04-09T17:30:43.440Z,58.80
2023-04-09T17:32:15.349Z,59.00
2023-04-09T17:33:48.082Z,58.90
2023-04-09T17:35:20.108Z,58.80
2023-04-09T17:36:57.073Z,59.00
2023-04-09T17:38:34.926Z,58.90
2023-04-09T17:40:09.485Z,58.70
2023-04-09T17:41:45.706Z,58.70
2023-04-09T17:43:17.783Z,59.00
2023-04-09T17:44:50.802Z,58.90
2023-04-09T17:46:25.763Z,59.00
2023-04-09T17:47:57.703Z,58.80
2023-04-09T17:49:31.668Z,58.80
2023-04-09T17:51:03.568Z,58.90
2023-04-09T17:52:39.080Z,59.00
2023-04-09T17:54:11.646Z,58.80
2023-04-09T17:55:50.919Z,59.10
2023-04-09T17:57:22.734Z,59.10
2023-04-09T17:58:54.654Z,59.10
2023-04-09T18:00:26.547Z,58.90
2023-04-09T18:01:58.686Z,58.70
2023-04-09T18:03:30.817Z,58.90
2023-04-09T18:05:06.032Z,59.00
2023-04-09T18:06:37.771Z,59.00
2023-04-09T18:08:09.488Z,59.10
2023-04-09T18:09:41.280Z,59.20
2023-04-09T18:11:15.420Z,58.90
2023-04-09T18:12:47.123Z,58.70
2023-04-09T18:14:18.882Z,58.90
2023-04-09T18:15:53.187Z,59.20
2023-04-09T18:17:26.298Z,59.10
2023-04-09T18:18:58.079Z,58.40
2023-04-09T18:20:29.820Z,58.50
2023-04-09T18:22:01.526Z,58.50
2023-04-09T18:23:34.275Z,58.40
2023-04-09T18:25:07.270Z,57.60
2023-04-09T18:26:39.934Z,58.20
2023-04-09T18:28:12.371Z,58.20
2023-04-09T18:29:49.432Z,58.10
2023-04-09T18:31:25.433Z,57.50
2023-04-09T18:33:00.408Z,57.50
2023-04-09T18:34:33.174Z,57.80
2023-04-09T18:36:13.469Z,57.80
2023-04-09T18:37:49.281Z,58.00
2023-04-09T18:39:23.045Z,58.00
2023-04-09T18:41:01.717Z,58.20
2023-04-09T18:42:36.193Z,58.50
2023-04-09T18:44:09.069Z,58.40
2023-04-09T18:45:53.929Z,58.30
2023-04-09T18:47:31.183Z,58.40
2023-04-09T18:49:06.403Z,58.30
2023-04-09T18:50:38.615Z,58.30
2023-04-09T18:52:15.907Z,58.20
2023-04-09T18:53:52.821Z,58.20
2023-04-09T18:55:28.448Z,58.20
2023-04-09T18:57:04.153Z,58.60
2023-04-09T18:58:51.678Z,58.90
2023-04-09T19:00:27.922Z,59.10
2023-04-09T19:02:00.779Z,59.50
2023-04-09T19:03:33.598Z,59.60
2023-04-09T19:05:24.966Z,59.70
2023-04-09T19:07:02.534Z,59.60
2023-04-09T19:08:38.415Z,59.60
2023-04-09T19:10:13.616Z,59.50
2023-04-09T19:11:45.936Z,59.60
2023-04-09T19:13:18.318Z,59.60
2023-04-09T19:14:50.696Z,59.80
2023-04-09T19:16:23.625Z,59.80
2023-04-09T19:18:03.881Z,60.00
2023-04-09T19:19:44.615Z,60.20
2023-04-09T19:21:24.137Z,60.20
2023-04-09T19:23:01.999Z,60.10
2023-04-09T19:24:38.663Z,60.00
2023-04-09T19:26:13.970Z,60.30
2023-04-09T19:27:49.015Z,60.20
2023-04-09T19:29:21.329Z,60.30
2023-04-09T19:30:56.873Z,60.30
2023-04-09T19:32:36.892Z,60.30
2023-04-09T19:34:16.528Z,60.40
2023-04-09T19:35:52.830Z,60.20
2023-04-09T19:37:30.424Z,60.30
2023-04-09T19:39:04.036Z,60.20
2023-04-09T19:40:36.461Z,60.20
2023-04-09T19:42:14.917Z,60.20
2023-04-09T19:43:49.580Z,60.00
2023-04-09T19:45:22.064Z,60.20
2023-04-09T19:46:59.741Z,60.20
2023-04-09T19:48:36.418Z,60.10
2023-04-09T19:50:11.532Z,60.20
2023-04-09T19:51:43.638Z,60.20
2023-04-09T19:53:18.680Z,60.30
2023-04-09T19:54:57.137Z,60.40
2023-04-09T19:56:39.045Z,60.60
2023-04-09T19:58:11.121Z,60.70
2023-04-09T19:59:44.352Z,60.80
2023-04-09T20:01:19.733Z,61.00
2023-04-09T20:02:55.240Z,60.90
2023-04-09T20:04:32.831Z,61.10
2023-04-09T20:06:10.336Z,61.10
2023-04-09T20:07:58.425Z,61.10
2023-04-09T20:09:31.023Z,61.10
2023-04-09T20:11:03.579Z,61.20
2023-04-09T20:12:40.304Z,61.30
2023-04-09T20:14:15.473Z,61.30
2023-04-09T20:15:54.803Z,61.40
2023-04-09T20:17:29.900Z,61.40
2023-04-09T20:19:04.621Z,61.50
2023-04-09T20:20:40.933Z,61.50
2023-04-09T20:22:13.309Z,61.60
2023-04-09T20:23:55.719Z,61.70